sensor_id;sensor_type;location;lat;lon;timestamp;temperature;humidity
66586;SHT30;53444;45.822;16.092;2023-05-06T00:02:10;14.32;78.47
66586;SHT30;53444;45.822;16.092;2023-05-06T00:04:37;14.22;78.39
66586;SHT30;53444;45.822;16.092;2023-05-06T00:07:04;14.18;78.83
66586;SHT30;53444;45.822;16.092;2023-05-06T00:09:31;14.10;78.83
66586;SHT30;53444;45.822;16.092;2023-05-06T00:11:58;14.11;78.91
66586;SHT30;53444;45.822;16.092;2023-05-06T00:14:25;14.18;78.59
66586;SHT30;53444;45.822;16.092;2023-05-06T00:16:53;14.15;78.71
66586;SHT30;53444;45.822;16.092;2023-05-06T00:19:20;14.04;78.81
66586;SHT30;53444;45.822;16.092;2023-05-06T00:21:47;13.84;79.63
66586;SHT30;53444;45.822;16.092;2023-05-06T00:24:13;13.84;79.86
66586;SHT30;53444;45.822;16.092;2023-05-06T00:26:40;13.71;80.46
66586;SHT30;53444;45.822;16.092;2023-05-06T00:29:07;13.80;80.02
66586;SHT30;53444;45.822;16.092;2023-05-06T00:31:34;13.44;81.47
66586;SHT30;53444;45.822;16.092;2023-05-06T00:34:02;13.39;81.58
66586;SHT30;53444;45.822;16.092;2023-05-06T00:36:28;13.56;81.03
66586;SHT30;53444;45.822;16.092;2023-05-06T00:38:56;13.71;80.54
66586;SHT30;53444;45.822;16.092;2023-05-06T00:41:23;13.78;80.33
66586;SHT30;53444;45.822;16.092;2023-05-06T00:43:49;13.56;80.83
66586;SHT30;53444;45.822;16.092;2023-05-06T00:46:17;13.81;80.34
66586;SHT30;53444;45.822;16.092;2023-05-06T00:48:44;13.88;79.94
66586;SHT30;53444;45.822;16.092;2023-05-06T00:51:12;13.75;80.38
66586;SHT30;53444;45.822;16.092;2023-05-06T00:53:40;13.73;80.31
66586;SHT30;53444;45.822;16.092;2023-05-06T00:56:07;13.71;80.51
66586;SHT30;53444;45.822;16.092;2023-05-06T00:58:34;13.77;80.54
66586;SHT30;53444;45.822;16.092;2023-05-06T01:01:01;13.60;81.02
66586;SHT30;53444;45.822;16.092;2023-05-06T01:03:28;13.36;81.80
66586;SHT30;53444;45.822;16.092;2023-05-06T01:06:03;13.35;81.82
66586;SHT30;53444;45.822;16.092;2023-05-06T01:08:49;13.33;82.20
66586;SHT30;53444;45.822;16.092;2023-05-06T01:11:24;13.02;83.00
66586;SHT30;53444;45.822;16.092;2023-05-06T01:13:58;13.09;82.85
66586;SHT30;53444;45.822;16.092;2023-05-06T01:16:27;13.36;82.00
66586;SHT30;53444;45.822;16.092;2023-05-06T01:18:56;13.38;81.86
66586;SHT30;53444;45.822;16.092;2023-05-06T01:21:25;13.52;81.40
66586;SHT30;53444;45.822;16.092;2023-05-06T01:24:01;13.54;81.28
66586;SHT30;53444;45.822;16.092;2023-05-06T01:26:27;13.47;81.61
66586;SHT30;53444;45.822;16.092;2023-05-06T01:28:55;13.32;82.31
66586;SHT30;53444;45.822;16.092;2023-05-06T01:31:24;13.36;82.47
66586;SHT30;53444;45.822;16.092;2023-05-06T01:34:01;13.49;81.75
66586;SHT30;53444;45.822;16.092;2023-05-06T01:36:37;13.52;81.34
66586;SHT30;53444;45.822;16.092;2023-05-06T01:39:13;13.56;81.30
66586;SHT30;53444;45.822;16.092;2023-05-06T01:41:42;13.49;81.54
66586;SHT30;53444;45.822;16.092;2023-05-06T01:44:10;13.22;82.75
66586;SHT30;53444;45.822;16.092;2023-05-06T01:46:37;13.09;83.23
66586;SHT30;53444;45.822;16.092;2023-05-06T01:49:07;13.13;83.04
66586;SHT30;53444;45.822;16.092;2023-05-06T01:51:36;12.93;83.98
66586;SHT30;53444;45.822;16.092;2023-05-06T01:54:03;13.02;83.60
66586;SHT30;53444;45.822;16.092;2023-05-06T01:56:31;13.13;83.23
66586;SHT30;53444;45.822;16.092;2023-05-06T01:58:58;13.24;82.80
66586;SHT30;53444;45.822;16.092;2023-05-06T02:01:25;13.29;82.62
66586;SHT30;53444;45.822;16.092;2023-05-06T02:03:52;13.29;82.80
66586;SHT30;53444;45.822;16.092;2023-05-06T02:06:19;13.33;82.62
66586;SHT30;53444;45.822;16.092;2023-05-06T02:08:46;13.27;82.69
66586;SHT30;53444;45.822;16.092;2023-05-06T02:11:13;13.20;83.05
66586;SHT30;53444;45.822;16.092;2023-05-06T02:13:41;13.03;83.50
66586;SHT30;53444;45.822;16.092;2023-05-06T02:16:08;12.98;83.90
66586;SHT30;53444;45.822;16.092;2023-05-06T02:18:35;13.05;83.70
66586;SHT30;53444;45.822;16.092;2023-05-06T02:21:02;13.08;83.61
66586;SHT30;53444;45.822;16.092;2023-05-06T02:23:29;13.20;83.17
66586;SHT30;53444;45.822;16.092;2023-05-06T02:25:56;13.27;82.87
66586;SHT30;53444;45.822;16.092;2023-05-06T02:28:23;13.11;83.23
66586;SHT30;53444;45.822;16.092;2023-05-06T02:30:55;13.13;83.15
66586;SHT30;53444;45.822;16.092;2023-05-06T02:33:22;12.93;83.96
66586;SHT30;53444;45.822;16.092;2023-05-06T02:35:49;12.87;84.35
66586;SHT30;53444;45.822;16.092;2023-05-06T02:38:16;12.87;84.41
66586;SHT30;53444;45.822;16.092;2023-05-06T02:40:43;12.93;84.17
66586;SHT30;53444;45.822;16.092;2023-05-06T02:43:10;13.06;83.55
66586;SHT30;53444;45.822;16.092;2023-05-06T02:45:37;13.08;83.24
66586;SHT30;53444;45.822;16.092;2023-05-06T02:48:06;13.06;83.51
66586;SHT30;53444;45.822;16.092;2023-05-06T02:50:33;13.01;83.45
66586;SHT30;53444;45.822;16.092;2023-05-06T02:53:00;12.89;83.94
66586;SHT30;53444;45.822;16.092;2023-05-06T02:55:27;12.87;84.14
66586;SHT30;53444;45.822;16.092;2023-05-06T02:57:54;12.65;84.77
66586;SHT30;53444;45.822;16.092;2023-05-06T03:00:20;12.74;84.38
66586;SHT30;53444;45.822;16.092;2023-05-06T03:02:47;12.78;83.81
66586;SHT30;53444;45.822;16.092;2023-05-06T03:05:16;12.77;83.64
66586;SHT30;53444;45.822;16.092;2023-05-06T03:07:42;12.17;85.28
66586;SHT30;53444;45.822;16.092;2023-05-06T03:10:09;12.36;84.24
66586;SHT30;53444;45.822;16.092;2023-05-06T03:12:36;12.10;84.82
66586;SHT30;53444;45.822;16.092;2023-05-06T03:15:04;11.89;85.69
66586;SHT30;53444;45.822;16.092;2023-05-06T03:17:31;12.03;85.65
66586;SHT30;53444;45.822;16.092;2023-05-06T03:19:58;12.09;85.32
66586;SHT30;53444;45.822;16.092;2023-05-06T03:22:26;12.06;85.58
66586;SHT30;53444;45.822;16.092;2023-05-06T03:24:53;12.23;85.13
66586;SHT30;53444;45.822;16.092;2023-05-06T03:27:20;12.27;85.24
66586;SHT30;53444;45.822;16.092;2023-05-06T03:29:47;12.19;85.73
66586;SHT30;53444;45.822;16.092;2023-05-06T03:32:14;12.40;84.97
66586;SHT30;53444;45.822;16.092;2023-05-06T03:34:41;12.45;84.80
66586;SHT30;53444;45.822;16.092;2023-05-06T03:37:09;12.52;84.68
66586;SHT30;53444;45.822;16.092;2023-05-06T03:39:37;12.45;85.29
66586;SHT30;53444;45.822;16.092;2023-05-06T03:42:05;12.42;85.70
66586;SHT30;53444;45.822;16.092;2023-05-06T03:44:32;12.38;85.66
66586;SHT30;53444;45.822;16.092;2023-05-06T03:46:59;12.31;85.85
66586;SHT30;53444;45.822;16.092;2023-05-06T03:49:26;12.23;86.71
66586;SHT30;53444;45.822;16.092;2023-05-06T03:51:53;12.16;86.27
66586;SHT30;53444;45.822;16.092;2023-05-06T03:54:21;12.26;86.21
66586;SHT30;53444;45.822;16.092;2023-05-06T03:56:49;12.27;85.94
66586;SHT30;53444;45.822;16.092;2023-05-06T03:59:16;12.37;85.87
66586;SHT30;53444;45.822;16.092;2023-05-06T04:01:43;12.47;85.68
66586;SHT30;53444;45.822;16.092;2023-05-06T04:04:10;12.48;85.47
66586;SHT30;53444;45.822;16.092;2023-05-06T04:06:38;12.60;85.25
66586;SHT30;53444;45.822;16.092;2023-05-06T04:09:05;12.36;85.98
66586;SHT30;53444;45.822;16.092;2023-05-06T04:11:31;12.45;85.81
66586;SHT30;53444;45.822;16.092;2023-05-06T04:14:00;12.60;85.33
66586;SHT30;53444;45.822;16.092;2023-05-06T04:16:30;12.65;85.14
66586;SHT30;53444;45.822;16.092;2023-05-06T04:18:57;12.68;84.86
66586;SHT30;53444;45.822;16.092;2023-05-06T04:21:25;12.72;84.93
66586;SHT30;53444;45.822;16.092;2023-05-06T04:23:54;12.65;85.22
66586;SHT30;53444;45.822;16.092;2023-05-06T04:26:22;12.68;85.23
66586;SHT30;53444;45.822;16.092;2023-05-06T04:28:49;12.62;85.32
66586;SHT30;53444;45.822;16.092;2023-05-06T04:31:18;12.58;85.54
66586;SHT30;53444;45.822;16.092;2023-05-06T04:33:45;12.52;85.89
66586;SHT30;53444;45.822;16.092;2023-05-06T04:36:13;12.54;85.97
66586;SHT30;53444;45.822;16.092;2023-05-06T04:38:40;12.68;85.39
66586;SHT30;53444;45.822;16.092;2023-05-06T04:41:08;12.71;85.40
66586;SHT30;53444;45.822;16.092;2023-05-06T04:43:36;12.84;85.22
66586;SHT30;53444;45.822;16.092;2023-05-06T04:46:03;12.80;85.57
66586;SHT30;53444;45.822;16.092;2023-05-06T04:48:33;12.93;85.27
66586;SHT30;53444;45.822;16.092;2023-05-06T04:51:00;12.88;85.73
66586;SHT30;53444;45.822;16.092;2023-05-06T04:53:29;12.96;85.65
66586;SHT30;53444;45.822;16.092;2023-05-06T04:55:56;13.02;85.24
66586;SHT30;53444;45.822;16.092;2023-05-06T04:58:26;13.12;85.16
66586;SHT30;53444;45.822;16.092;2023-05-06T05:01:02;13.16;84.75
66586;SHT30;53444;45.822;16.092;2023-05-06T05:06:17;12.58;86.02
66586;SHT30;53444;45.822;16.092;2023-05-06T05:08:47;12.77;85.94
66586;SHT30;53444;45.822;16.092;2023-05-06T05:11:13;12.52;87.07
66586;SHT30;53444;45.822;16.092;2023-05-06T05:13:40;12.87;85.98
66586;SHT30;53444;45.822;16.092;2023-05-06T05:16:07;13.09;85.38
66586;SHT30;53444;45.822;16.092;2023-05-06T05:18:36;13.13;85.62
66586;SHT30;53444;45.822;16.092;2023-05-06T05:21:03;13.29;85.21
66586;SHT30;53444;45.822;16.092;2023-05-06T05:23:33;13.54;84.47
66586;SHT30;53444;45.822;16.092;2023-05-06T05:26:00;13.74;83.75
66586;SHT30;53444;45.822;16.092;2023-05-06T05:28:27;13.91;83.25
66586;SHT30;53444;45.822;16.092;2023-05-06T05:30:54;14.14;82.91
66586;SHT30;53444;45.822;16.092;2023-05-06T05:33:27;14.01;83.26
66586;SHT30;53444;45.822;16.092;2023-05-06T05:35:53;14.26;82.45
66586;SHT30;53444;45.822;16.092;2023-05-06T05:38:23;14.32;82.26
66586;SHT30;53444;45.822;16.092;2023-05-06T05:40:52;14.32;82.72
66586;SHT30;53444;45.822;16.092;2023-05-06T05:43:19;14.39;82.85
66586;SHT30;53444;45.822;16.092;2023-05-06T05:45:47;14.54;82.21
66586;SHT30;53444;45.822;16.092;2023-05-06T05:48:14;14.73;81.85
66586;SHT30;53444;45.822;16.092;2023-05-06T05:50:41;14.80;81.48
66586;SHT30;53444;45.822;16.092;2023-05-06T05:53:09;14.92;81.62
66586;SHT30;53444;45.822;16.092;2023-05-06T05:55:38;15.07;81.15
66586;SHT30;53444;45.822;16.092;2023-05-06T05:58:08;15.23;80.73
66586;SHT30;53444;45.822;16.092;2023-05-06T06:00:34;15.53;80.33
66586;SHT30;53444;45.822;16.092;2023-05-06T06:03:01;15.53;80.08
66586;SHT30;53444;45.822;16.092;2023-05-06T06:05:28;15.62;80.69
66586;SHT30;53444;45.822;16.092;2023-05-06T06:07:55;15.68;80.53
66586;SHT30;53444;45.822;16.092;2023-05-06T06:10:22;15.77;80.36
66586;SHT30;53444;45.822;16.092;2023-05-06T06:12:49;15.99;79.64
66586;SHT30;53444;45.822;16.092;2023-05-06T06:15:17;16.09;80.27
66586;SHT30;53444;45.822;16.092;2023-05-06T06:17:44;15.92;81.81
66586;SHT30;53444;45.822;16.092;2023-05-06T06:20:11;15.92;80.35
66586;SHT30;53444;45.822;16.092;2023-05-06T06:22:38;16.26;79.38
66586;SHT30;53444;45.822;16.092;2023-05-06T06:25:06;16.28;79.52
66586;SHT30;53444;45.822;16.092;2023-05-06T06:27:33;16.47;79.44
66586;SHT30;53444;45.822;16.092;2023-05-06T06:30:00;16.57;78.50
66586;SHT30;53444;45.822;16.092;2023-05-06T06:32:28;16.19;79.85
66586;SHT30;53444;45.822;16.092;2023-05-06T06:34:55;16.45;79.65
66586;SHT30;53444;45.822;16.092;2023-05-06T06:37:21;16.73;78.88
66586;SHT30;53444;45.822;16.092;2023-05-06T06:39:48;16.88;78.42
66586;SHT30;53444;45.822;16.092;2023-05-06T06:42:15;16.50;79.62
66586;SHT30;53444;45.822;16.092;2023-05-06T06:44:41;16.60;79.17
66586;SHT30;53444;45.822;16.092;2023-05-06T06:47:08;16.80;78.83
66586;SHT30;53444;45.822;16.092;2023-05-06T06:49:36;17.11;78.05
66586;SHT30;53444;45.822;16.092;2023-05-06T06:52:04;17.27;77.70
66586;SHT30;53444;45.822;16.092;2023-05-06T06:54:31;17.39;77.16
66586;SHT30;53444;45.822;16.092;2023-05-06T06:56:57;17.35;78.00
66586;SHT30;53444;45.822;16.092;2023-05-06T06:59:24;17.55;78.03
66586;SHT30;53444;45.822;16.092;2023-05-06T07:01:51;17.75;76.95
66586;SHT30;53444;45.822;16.092;2023-05-06T07:04:17;17.85;76.60
66586;SHT30;53444;45.822;16.092;2023-05-06T07:06:45;17.93;75.79
66586;SHT30;53444;45.822;16.092;2023-05-06T07:09:12;18.03;75.20
66586;SHT30;53444;45.822;16.092;2023-05-06T07:11:38;18.23;74.56
66586;SHT30;53444;45.822;16.092;2023-05-06T07:14:05;18.24;74.38
66586;SHT30;53444;45.822;16.092;2023-05-06T07:16:32;18.36;73.86
66586;SHT30;53444;45.822;16.092;2023-05-06T07:18:59;18.54;73.96
66586;SHT30;53444;45.822;16.092;2023-05-06T07:21:26;18.51;73.32
66586;SHT30;53444;45.822;16.092;2023-05-06T07:23:54;18.67;73.33
66586;SHT30;53444;45.822;16.092;2023-05-06T07:26:20;18.89;73.29
66586;SHT30;53444;45.822;16.092;2023-05-06T07:28:47;18.62;73.41
66586;SHT30;53444;45.822;16.092;2023-05-06T07:31:13;18.74;72.24
66586;SHT30;53444;45.822;16.092;2023-05-06T07:33:40;18.87;71.45
66586;SHT30;53444;45.822;16.092;2023-05-06T07:36:07;19.08;71.06
66586;SHT30;53444;45.822;16.092;2023-05-06T07:38:34;19.19;71.09
66586;SHT30;53444;45.822;16.092;2023-05-06T07:41:02;19.26;71.74
66586;SHT30;53444;45.822;16.092;2023-05-06T07:43:28;19.45;71.11
66586;SHT30;53444;45.822;16.092;2023-05-06T07:45:55;19.49;70.73
66586;SHT30;53444;45.822;16.092;2023-05-06T07:48:26;19.69;70.56
66586;SHT30;53444;45.822;16.092;2023-05-06T07:50:53;19.83;69.78
66586;SHT30;53444;45.822;16.092;2023-05-06T07:53:20;19.81;69.76
66586;SHT30;53444;45.822;16.092;2023-05-06T07:55:46;19.93;68.83
66586;SHT30;53444;45.822;16.092;2023-05-06T07:58:14;19.98;69.20
66586;SHT30;53444;45.822;16.092;2023-05-06T08:00:41;20.07;68.92
66586;SHT30;53444;45.822;16.092;2023-05-06T08:03:08;20.28;67.00
66586;SHT30;53444;45.822;16.092;2023-05-06T08:05:34;20.28;63.63
66586;SHT30;53444;45.822;16.092;2023-05-06T08:08:01;19.91;66.34
66586;SHT30;53444;45.822;16.092;2023-05-06T08:10:28;20.13;66.02
66586;SHT30;53444;45.822;16.092;2023-05-06T08:12:54;20.29;65.70
66586;SHT30;53444;45.822;16.092;2023-05-06T08:15:22;20.08;65.42
66586;SHT30;53444;45.822;16.092;2023-05-06T08:17:49;20.25;65.85
66586;SHT30;53444;45.822;16.092;2023-05-06T08:20:15;20.49;65.29
66586;SHT30;53444;45.822;16.092;2023-05-06T08:22:42;20.61;66.03
66586;SHT30;53444;45.822;16.092;2023-05-06T08:25:09;20.87;64.06
66586;SHT30;53444;45.822;16.092;2023-05-06T08:27:35;21.02;64.04
66586;SHT30;53444;45.822;16.092;2023-05-06T08:30:02;21.14;63.46
66586;SHT30;53444;45.822;16.092;2023-05-06T08:32:31;21.22;64.12
66586;SHT30;53444;45.822;16.092;2023-05-06T08:34:57;21.28;64.58
66586;SHT30;53444;45.822;16.092;2023-05-06T08:37:24;21.36;63.16
66586;SHT30;53444;45.822;16.092;2023-05-06T08:39:51;21.58;63.22
66586;SHT30;53444;45.822;16.092;2023-05-06T08:42:18;21.54;62.75
66586;SHT30;53444;45.822;16.092;2023-05-06T08:44:46;21.65;61.94
66586;SHT30;53444;45.822;16.092;2023-05-06T08:47:12;21.77;62.93
66586;SHT30;53444;45.822;16.092;2023-05-06T08:49:40;21.98;62.28
66586;SHT30;53444;45.822;16.092;2023-05-06T08:52:07;22.09;63.22
66586;SHT30;53444;45.822;16.092;2023-05-06T08:54:34;22.29;61.09
66586;SHT30;53444;45.822;16.092;2023-05-06T08:57:03;22.33;60.20
66586;SHT30;53444;45.822;16.092;2023-05-06T08:59:31;22.16;58.88
66586;SHT30;53444;45.822;16.092;2023-05-06T09:01:59;22.26;61.06
66586;SHT30;53444;45.822;16.092;2023-05-06T09:04:26;22.36;60.48
66586;SHT30;53444;45.822;16.092;2023-05-06T09:06:55;22.59;60.74
66586;SHT30;53444;45.822;16.092;2023-05-06T09:09:22;22.63;60.84
66586;SHT30;53444;45.822;16.092;2023-05-06T09:11:49;22.50;62.86
66586;SHT30;53444;45.822;16.092;2023-05-06T09:14:20;22.89;59.72
66586;SHT30;53444;45.822;16.092;2023-05-06T09:16:48;22.64;60.39
66586;SHT30;53444;45.822;16.092;2023-05-06T09:19:17;22.46;60.60
66586;SHT30;53444;45.822;16.092;2023-05-06T09:21:45;22.79;59.60
66586;SHT30;53444;45.822;16.092;2023-05-06T09:24:14;23.10;57.50
66586;SHT30;53444;45.822;16.092;2023-05-06T09:26:42;23.40;56.57
66586;SHT30;53444;45.822;16.092;2023-05-06T09:29:09;22.97;57.95
66586;SHT30;53444;45.822;16.092;2023-05-06T09:31:39;23.40;56.55
66586;SHT30;53444;45.822;16.092;2023-05-06T09:34:07;23.57;56.25
66586;SHT30;53444;45.822;16.092;2023-05-06T09:36:33;23.62;57.47
66586;SHT30;53444;45.822;16.092;2023-05-06T09:39:00;23.86;57.41
66586;SHT30;53444;45.822;16.092;2023-05-06T09:41:28;23.93;56.06
66586;SHT30;53444;45.822;16.092;2023-05-06T09:43:55;24.23;54.95
66586;SHT30;53444;45.822;16.092;2023-05-06T09:46:24;24.23;54.31
66586;SHT30;53444;45.822;16.092;2023-05-06T09:48:53;24.27;55.48
66586;SHT30;53444;45.822;16.092;2023-05-06T09:51:21;24.46;54.07
66586;SHT30;53444;45.822;16.092;2023-05-06T09:53:48;24.83;53.85
66586;SHT30;53444;45.822;16.092;2023-05-06T09:56:15;24.96;53.07
66586;SHT30;53444;45.822;16.092;2023-05-06T09:58:44;24.95;53.16
66586;SHT30;53444;45.822;16.092;2023-05-06T10:01:11;25.04;50.88
66586;SHT30;53444;45.822;16.092;2023-05-06T10:03:40;25.14;49.78
66586;SHT30;53444;45.822;16.092;2023-05-06T10:06:08;25.25;51.40
66586;SHT30;53444;45.822;16.092;2023-05-06T10:08:37;25.18;51.22
66586;SHT30;53444;45.822;16.092;2023-05-06T10:11:06;25.41;51.18
66586;SHT30;53444;45.822;16.092;2023-05-06T10:13:34;25.35;50.64
66586;SHT30;53444;45.822;16.092;2023-05-06T10:16:04;25.39;52.92
66586;SHT30;53444;45.822;16.092;2023-05-06T10:18:31;25.42;52.09
66586;SHT30;53444;45.822;16.092;2023-05-06T10:21:01;24.95;52.30
66586;SHT30;53444;45.822;16.092;2023-05-06T10:23:32;25.43;50.33
66586;SHT30;53444;45.822;16.092;2023-05-06T10:26:04;25.83;51.87
66586;SHT30;53444;45.822;16.092;2023-05-06T10:28:33;26.01;49.87
66586;SHT30;53444;45.822;16.092;2023-05-06T10:31:10;25.65;47.96
66586;SHT30;53444;45.822;16.092;2023-05-06T10:33:37;25.90;47.14
66586;SHT30;53444;45.822;16.092;2023-05-06T10:36:12;26.13;47.28
66586;SHT30;53444;45.822;16.092;2023-05-06T10:38:42;25.83;47.84
66586;SHT30;53444;45.822;16.092;2023-05-06T10:41:09;25.69;48.99
66586;SHT30;53444;45.822;16.092;2023-05-06T10:43:38;25.11;49.80
66586;SHT30;53444;45.822;16.092;2023-05-06T10:46:09;24.64;51.05
66586;SHT30;53444;45.822;16.092;2023-05-06T10:48:38;24.59;52.01
66586;SHT30;53444;45.822;16.092;2023-05-06T10:51:22;25.45;49.30
66586;SHT30;53444;45.822;16.092;2023-05-06T10:54:02;25.82;47.18
66586;SHT30;53444;45.822;16.092;2023-05-06T10:56:31;25.47;45.13
66586;SHT30;53444;45.822;16.092;2023-05-06T10:59:00;26.12;44.54
66586;SHT30;53444;45.822;16.092;2023-05-06T11:01:29;26.08;45.38
66586;SHT30;53444;45.822;16.092;2023-05-06T11:03:56;26.49;45.45
66586;SHT30;53444;45.822;16.092;2023-05-06T11:06:32;26.94;43.52
66586;SHT30;53444;45.822;16.092;2023-05-06T11:08:59;26.94;45.12
66586;SHT30;53444;45.822;16.092;2023-05-06T11:11:48;27.20;44.66
66586;SHT30;53444;45.822;16.092;2023-05-06T11:14:24;26.95;44.63
66586;SHT30;53444;45.822;16.092;2023-05-06T11:16:53;26.72;43.26
66586;SHT30;53444;45.822;16.092;2023-05-06T11:19:22;27.16;42.34
66586;SHT30;53444;45.822;16.092;2023-05-06T11:21:50;27.32;42.15
66586;SHT30;53444;45.822;16.092;2023-05-06T11:24:25;27.45;42.62
66586;SHT30;53444;45.822;16.092;2023-05-06T11:26:51;27.51;42.34
66586;SHT30;53444;45.822;16.092;2023-05-06T11:29:19;27.81;41.10
66586;SHT30;53444;45.822;16.092;2023-05-06T11:31:46;28.15;40.74
66586;SHT30;53444;45.822;16.092;2023-05-06T11:34:20;28.25;41.34
66586;SHT30;53444;45.822;16.092;2023-05-06T11:36:49;28.28;38.49
66586;SHT30;53444;45.822;16.092;2023-05-06T11:39:16;28.53;39.56
66586;SHT30;53444;45.822;16.092;2023-05-06T11:41:43;28.11;39.09
66586;SHT30;53444;45.822;16.092;2023-05-06T11:44:09;28.14;38.57
66586;SHT30;53444;45.822;16.092;2023-05-06T11:46:38;27.78;40.37
66586;SHT30;53444;45.822;16.092;2023-05-06T11:49:05;28.15;39.11
66586;SHT30;53444;45.822;16.092;2023-05-06T11:51:33;28.49;37.80
66586;SHT30;53444;45.822;16.092;2023-05-06T11:54:07;28.88;36.38
66586;SHT30;53444;45.822;16.092;2023-05-06T11:56:44;29.20;38.65
66586;SHT30;53444;45.822;16.092;2023-05-06T11:59:11;29.35;38.54
66586;SHT30;53444;45.822;16.092;2023-05-06T12:01:40;29.02;38.83
66586;SHT30;53444;45.822;16.092;2023-05-06T12:04:07;29.27;40.43
66586;SHT30;53444;45.822;16.092;2023-05-06T12:06:35;29.55;38.07
66586;SHT30;53444;45.822;16.092;2023-05-06T12:09:04;30.02;37.19
66586;SHT30;53444;45.822;16.092;2023-05-06T12:11:33;29.82;38.93
66586;SHT30;53444;45.822;16.092;2023-05-06T12:14:01;29.64;37.47
66586;SHT30;53444;45.822;16.092;2023-05-06T12:16:29;28.00;39.95
66586;SHT30;53444;45.822;16.092;2023-05-06T12:18:56;28.68;41.14
66586;SHT30;53444;45.822;16.092;2023-05-06T12:21:23;29.21;39.55
66586;SHT30;53444;45.822;16.092;2023-05-06T12:23:52;29.51;39.28
66586;SHT30;53444;45.822;16.092;2023-05-06T12:26:20;28.55;39.64
66586;SHT30;53444;45.822;16.092;2023-05-06T12:29:03;27.45;41.40
66586;SHT30;53444;45.822;16.092;2023-05-06T12:31:31;28.38;41.52
66586;SHT30;53444;45.822;16.092;2023-05-06T12:33:57;28.95;39.48
66586;SHT30;53444;45.822;16.092;2023-05-06T12:36:24;29.54;38.48
66586;SHT30;53444;45.822;16.092;2023-05-06T12:38:53;29.78;39.97
66586;SHT30;53444;45.822;16.092;2023-05-06T12:41:20;29.70;38.13
66586;SHT30;53444;45.822;16.092;2023-05-06T12:43:47;30.04;36.84
66586;SHT30;53444;45.822;16.092;2023-05-06T12:46:15;30.04;37.29
66586;SHT30;53444;45.822;16.092;2023-05-06T12:48:55;30.57;36.41
66586;SHT30;53444;45.822;16.092;2023-05-06T12:51:22;30.12;34.70
66586;SHT30;53444;45.822;16.092;2023-05-06T12:53:49;30.52;33.56
66586;SHT30;53444;45.822;16.092;2023-05-06T12:56:17;30.43;34.57
66586;SHT30;53444;45.822;16.092;2023-05-06T12:58:54;30.28;34.24
66586;SHT30;53444;45.822;16.092;2023-05-06T13:01:21;29.78;36.03
66586;SHT30;53444;45.822;16.092;2023-05-06T13:03:48;30.46;35.37
66586;SHT30;53444;45.822;16.092;2023-05-06T13:06:14;30.66;33.98
66586;SHT30;53444;45.822;16.092;2023-05-06T13:08:41;30.76;34.68
66586;SHT30;53444;45.822;16.092;2023-05-06T13:11:08;29.38;34.37
66586;SHT30;53444;45.822;16.092;2023-05-06T13:13:36;29.62;34.29
66586;SHT30;53444;45.822;16.092;2023-05-06T13:16:03;30.19;33.40
66586;SHT30;53444;45.822;16.092;2023-05-06T13:18:30;30.32;34.64
66586;SHT30;53444;45.822;16.092;2023-05-06T13:20:57;29.48;35.79
66586;SHT30;53444;45.822;16.092;2023-05-06T13:23:24;30.15;34.42
66586;SHT30;53444;45.822;16.092;2023-05-06T13:25:51;29.70;34.28
66586;SHT30;53444;45.822;16.092;2023-05-06T13:28:17;29.78;34.99
66586;SHT30;53444;45.822;16.092;2023-05-06T13:30:45;30.30;33.55
66586;SHT30;53444;45.822;16.092;2023-05-06T13:33:12;30.69;33.49
66586;SHT30;53444;45.822;16.092;2023-05-06T13:35:38;30.98;34.17
66586;SHT30;53444;45.822;16.092;2023-05-06T13:38:05;31.25;34.08
66586;SHT30;53444;45.822;16.092;2023-05-06T13:40:31;31.54;33.75
66586;SHT30;53444;45.822;16.092;2023-05-06T13:42:58;31.25;32.25
66586;SHT30;53444;45.822;16.092;2023-05-06T13:45:25;31.63;32.39
66586;SHT30;53444;45.822;16.092;2023-05-06T13:47:52;31.81;32.25
66586;SHT30;53444;45.822;16.092;2023-05-06T13:50:19;32.05;33.03
66586;SHT30;53444;45.822;16.092;2023-05-06T13:52:46;32.09;31.78
66586;SHT30;53444;45.822;16.092;2023-05-06T13:55:12;30.67;34.59
66586;SHT30;53444;45.822;16.092;2023-05-06T13:57:39;31.01;34.04
66586;SHT30;53444;45.822;16.092;2023-05-06T14:00:07;30.95;34.21
66586;SHT30;53444;45.822;16.092;2023-05-06T14:02:35;29.74;36.48
66586;SHT30;53444;45.822;16.092;2023-05-06T14:05:03;30.88;33.12
66586;SHT30;53444;45.822;16.092;2023-05-06T14:07:30;31.27;34.82
66586;SHT30;53444;45.822;16.092;2023-05-06T14:09:57;30.30;34.91
66586;SHT30;53444;45.822;16.092;2023-05-06T14:12:23;30.25;34.30
66586;SHT30;53444;45.822;16.092;2023-05-06T14:14:50;31.37;35.89
66586;SHT30;53444;45.822;16.092;2023-05-06T14:17:16;31.07;37.09
66586;SHT30;53444;45.822;16.092;2023-05-06T14:19:43;31.21;36.90
66586;SHT30;53444;45.822;16.092;2023-05-06T14:22:11;31.95;35.73
66586;SHT30;53444;45.822;16.092;2023-05-06T14:24:38;31.30;36.30
66586;SHT30;53444;45.822;16.092;2023-05-06T14:27:04;31.96;35.21
66586;SHT30;53444;45.822;16.092;2023-05-06T14:29:31;32.19;35.16
66586;SHT30;53444;45.822;16.092;2023-05-06T14:31:57;31.63;35.21
66586;SHT30;53444;45.822;16.092;2023-05-06T14:34:24;29.88;37.82
66586;SHT30;53444;45.822;16.092;2023-05-06T14:36:51;31.38;36.65
66586;SHT30;53444;45.822;16.092;2023-05-06T14:39:19;31.21;36.25
66586;SHT30;53444;45.822;16.092;2023-05-06T14:41:45;31.58;36.00
66586;SHT30;53444;45.822;16.092;2023-05-06T14:44:12;31.55;34.75
66586;SHT30;53444;45.822;16.092;2023-05-06T14:46:39;31.11;35.68
66586;SHT30;53444;45.822;16.092;2023-05-06T14:49:06;31.90;34.82
66586;SHT30;53444;45.822;16.092;2023-05-06T14:51:32;31.25;34.55
66586;SHT30;53444;45.822;16.092;2023-05-06T14:53:59;29.85;36.76
66586;SHT30;53444;45.822;16.092;2023-05-06T14:56:27;31.38;34.64
66586;SHT30;53444;45.822;16.092;2023-05-06T14:58:53;31.00;35.07
66586;SHT30;53444;45.822;16.092;2023-05-06T15:01:20;31.35;33.98
66586;SHT30;53444;45.822;16.092;2023-05-06T15:03:47;32.08;32.81
66586;SHT30;53444;45.822;16.092;2023-05-06T15:06:15;30.66;33.94
66586;SHT30;53444;45.822;16.092;2023-05-06T15:08:41;31.81;33.75
66586;SHT30;53444;45.822;16.092;2023-05-06T15:11:08;32.41;33.07
66586;SHT30;53444;45.822;16.092;2023-05-06T15:13:36;32.94;31.34
66586;SHT30;53444;45.822;16.092;2023-05-06T15:16:03;33.66;30.58
66586;SHT30;53444;45.822;16.092;2023-05-06T15:18:30;34.23;30.03
66586;SHT30;53444;45.822;16.092;2023-05-06T15:20:57;34.14;30.18
66586;SHT30;53444;45.822;16.092;2023-05-06T15:23:25;34.09;29.18